Time;durP1;ratioP1;P1;durP2;ratioP2;P2;SDS_P1;SDS_P2;PMS_P1;PMS_P2;Temp;Humidity;BMP_temperature;BMP_pressure;BME280_temperature;BME280_humidity;BME280_pressure;Samples;Min_cycle;Max_cycle;Signal;HPM_P1;HPM_P2
2021/10/21 00:01:27;;;;;;;2.58;2.20;;;;;;;19.84;41.03;94311.97;4985113;28;20058;-69
2021/10/21 00:03:54;;;;;;;6.47;2.00;;;;;;;19.90;40.49;94319.28;4970236;28;20031;-69
2021/10/21 00:06:19;;;;;;;2.30;2.10;;;;;;;20.17;40.32;94319.72;4970241;28;20125;-69
2021/10/21 00:08:45;;;;;;;3.08;2.20;;;;;;;20.13;39.61;94299.28;4971067;28;20125;-68
2021/10/21 00:11:11;;;;;;;2.35;2.03;;;;;;;19.67;40.10;94289.19;4961678;28;20070;-69
2021/10/21 00:13:37;;;;;;;3.15;2.42;;;;;;;20.12;39.79;94290.41;4950263;28;20513;-69
2021/10/21 00:16:02;;;;;;;2.47;2.28;;;;;;;20.03;39.92;94265.72;4961182;28;20050;-69
2021/10/21 00:18:28;;;;;;;1.90;1.80;;;;;;;20.23;39.72;94279.59;4984742;28;20043;-69
2021/10/21 00:20:53;;;;;;;2.90;2.28;;;;;;;20.08;39.75;94284.22;4969567;28;20034;-69
2021/10/21 00:23:18;;;;;;;2.42;1.98;;;;;;;20.18;39.76;94272.66;4971067;28;20499;-69
2021/10/21 00:25:44;;;;;;;1.90;1.80;;;;;;;20.17;39.57;94283.84;4976603;28;20041;-69
2021/10/21 00:28:12;;;;;;;2.38;2.17;;;;;;;20.07;39.99;94255.69;4961975;28;20042;-69
2021/10/21 00:30:37;;;;;;;2.03;1.92;;;;;;;20.15;39.82;94259.16;4968774;28;20401;-68
2021/10/21 00:33:03;;;;;;;2.22;1.98;;;;;;;20.00;40.46;94271.88;4970345;28;20035;-69
2021/10/21 00:35:29;;;;;;;2.63;1.60;;;;;;;20.07;40.19;94263.03;4972402;28;20037;-69
2021/10/21 00:37:54;;;;;;;3.03;1.70;;;;;;;19.94;40.33;94247.19;4970258;28;20501;-69
2021/10/21 00:40:22;;;;;;;2.72;1.70;;;;;;;20.36;39.82;94261.06;4958890;28;20066;-69
2021/10/21 00:42:47;;;;;;;2.40;2.05;;;;;;;20.43;39.67;94250.28;4957979;28;20035;-69
2021/10/21 00:45:13;;;;;;;2.05;1.95;;;;;;;19.89;39.93;94182.03;4965079;28;20039;-68
2021/10/21 00:47:38;;;;;;;2.42;1.67;;;;;;;20.02;40.12;94225.63;4952286;28;20042;-71
2021/10/21 00:50:04;;;;;;;1.80;1.70;;;;;;;20.16;40.09;94231.75;4964493;28;20082;-70
2021/10/21 00:52:31;;;;;;;2.40;1.77;;;;;;;20.05;39.93;94225.59;4951948;28;20234;-69
2021/10/21 00:54:57;;;;;;;1.73;1.60;;;;;;;19.84;40.04;94206.72;4960660;28;20050;-69
2021/10/21 00:57:22;;;;;;;4.00;2.15;;;;;;;19.71;40.49;94220.59;4958718;28;20094;-69
2021/10/21 00:59:49;;;;;;;2.85;2.10;;;;;;;19.51;40.70;94205.88;4949606;28;20113;-69
2021/10/21 01:02:15;;;;;;;2.30;2.08;;;;;;;19.85;40.23;94202.84;4951836;28;20066;-68
2021/10/21 01:04:40;;;;;;;4.45;2.25;;;;;;;19.59;40.65;94193.16;4949656;28;20146;-69
2021/10/21 01:07:06;;;;;;;2.70;1.88;;;;;;;19.57;40.51;94182.78;4949951;28;20544;-69
2021/10/21 01:09:33;;;;;;;2.40;2.20;;;;;;;19.37;40.56;94181.59;4971679;28;20074;-68
2021/10/21 01:11:59;;;;;;;2.65;2.03;;;;;;;19.57;40.53;94180.06;4957707;28;20023;-69
2021/10/21 01:14:24;;;;;;;2.35;2.15;;;;;;;19.23;40.86;94164.22;4959214;28;20404;-69
2021/10/21 01:16:50;;;;;;;2.50;2.30;;;;;;;18.98;41.39;94165.31;4949866;28;20066;-69
2021/10/21 01:19:21;;;;;;;3.83;2.05;;;;;;;19.42;40.57;94163.09;4964077;28;20032;-69
2021/10/21 01:21:49;;;;;;;2.95;1.98;;;;;;;19.42;40.41;94170.44;4949702;28;20040;-70
2021/10/21 01:24:15;;;;;;;2.47;2.28;;;;;;;19.34;40.29;94128.41;4956744;28;20500;-67
2021/10/21 01:26:46;;;;;;;2.00;1.90;;;;;;;19.64;39.95;94136.94;4965838;28;20093;-68
2021/10/21 01:29:13;;;;;;;2.40;2.25;;;;;;;19.51;40.01;94138.47;4966560;28;20055;-67
2021/10/21 01:31:39;;;;;;;2.50;2.30;;;;;;;19.37;39.87;94127.66;4983736;28;20049;-68
2021/10/21 01:34:10;;;;;;;2.90;2.45;;;;;;;19.29;40.45;94139.59;4968578;28;20629;-68
2021/10/21 01:36:36;;;;;;;2.72;2.53;;;;;;;19.57;39.79;94131.53;4968385;28;20069;-68
2021/10/21 01:39:09;;;;;;;2.30;2.10;;;;;;;19.46;40.00;94125.38;4967838;28;20051;-69
2021/10/21 01:41:35;;;;;;;2.40;2.20;;;;;;;19.27;40.33;94112.25;4962719;28;20090;-68
2021/10/21 01:44:01;;;;;;;2.28;2.10;;;;;;;19.44;39.95;94101.44;4960461;28;20039;-68
2021/10/21 01:46:27;;;;;;;2.40;2.20;;;;;;;19.55;39.83;94123.06;4968713;28;20500;-68
2021/10/21 01:48:52;;;;;;;3.05;2.40;;;;;;;19.45;39.84;94096.84;4968182;28;20845;-68
2021/10/21 01:51:18;;;;;;;3.45;2.65;;;;;;;19.38;39.87;94104.94;4968598;28;20032;-68
2021/10/21 01:53:43;;;;;;;2.33;2.13;;;;;;;19.54;39.70;94091.81;4969745;28;20035;-68
2021/10/21 01:56:09;;;;;;;2.15;1.92;;;;;;;19.48;39.73;94104.16;4959796;28;20059;-68
2021/10/21 01:58:35;;;;;;;2.67;2.47;;;;;;;19.48;39.71;94094.13;4963851;28;20048;-68
2021/10/21 02:01:01;;;;;;;2.67;2.25;;;;;;;19.63;39.46;94103.03;4949048;28;20102;-68
2021/10/21 02:03:26;;;;;;;2.17;1.98;;;;;;;19.74;39.22;94090.28;4963613;28;20035;-68
2021/10/21 02:05:51;;;;;;;3.30;2.45;;;;;;;19.47;39.60;94068.34;4948408;29;20601;-68
2021/10/21 02:08:17;;;;;;;2.50;2.30;;;;;;;19.74;39.00;94068.72;4938707;28;20030;-68
2021/10/21 02:10:42;;;;;;;2.60;2.40;;;;;;;19.60;39.13;94057.94;4956572;28;20035;-68
2021/10/21 02:13:08;;;;;;;4.30;2.72;;;;;;;19.85;38.67;94027.44;4957380;28;20036;-68
2021/10/21 02:15:34;;;;;;;2.60;2.40;;;;;;;19.90;38.36;94041.31;4968445;28;20039;-68
2021/10/21 02:17:59;;;;;;;2.60;2.40;;;;;;;19.83;37.89;94040.56;4983517;28;20022;-68
2021/10/21 02:20:25;;;;;;;2.60;2.40;;;;;;;20.04;38.20;94032.41;4970168;28;20030;-68
2021/10/21 02:22:51;;;;;;;2.28;2.17;;;;;;;20.11;37.94;94032.38;4968084;28;20053;-68
2021/10/21 02:25:18;;;;;;;3.08;2.40;;;;;;;20.19;37.61;94025.03;4960123;28;20490;-68
2021/10/21 02:27:43;;;;;;;2.72;2.53;;;;;;;19.99;37.79;94030.09;4975381;28;20035;-68
2021/10/21 02:30:11;;;;;;;2.83;2.40;;;;;;;19.84;38.15;94021.28;4966793;28;20513;-68
2021/10/21 02:32:37;;;;;;;2.78;2.45;;;;;;;19.96;37.89;94044.38;4985087;28;20030;-68
2021/10/21 02:35:03;;;;;;;2.80;2.60;;;;;;;19.76;38.00;94043.25;4968613;28;20035;-68
2021/10/21 02:37:28;;;;;;;2.90;2.63;;;;;;;19.12;39.04;94050.22;4972091;28;20030;-68
2021/10/21 02:39:54;;;;;;;5.00;2.72;;;;;;;19.23;39.05;94059.09;4967050;28;20062;-69
2021/10/21 02:42:19;;;;;;;3.25;2.22;;;;;;;18.58;39.87;94065.53;4978516;28;20046;-68
2021/10/21 02:44:44;;;;;;;3.05;2.42;;;;;;;18.56;40.24;94134.34;4973350;28;20081;-68
2021/10/21 02:47:10;;;;;;;3.67;2.63;;;;;;;17.01;44.26;94163.97;4970837;28;20043;-68
2021/10/21 02:49:35;;;;;;;5.93;2.83;;;;;;;17.04;45.34;94081.84;4970761;28;20460;-71
2021/10/21 02:52:01;;;;;;;2.88;2.17;;;;;;;17.80;43.72;94078.59;4971817;28;20104;-70
2021/10/21 02:54:26;;;;;;;2.83;2.63;;;;;;;18.47;42.23;94072.78;4968171;28;20042;-70
2021/10/21 02:56:52;;;;;;;3.45;2.50;;;;;;;19.02;41.36;94107.59;4960213;28;20422;-69
2021/10/21 02:59:17;;;;;;;2.85;2.20;;;;;;;18.34;42.35;94101.19;4971429;28;20473;-68
2021/10/21 03:01:42;;;;;;;2.90;2.10;;;;;;;18.29;43.26;94098.88;4971537;28;20404;-66
2021/10/21 03:04:08;;;;;;;3.53;2.42;;;;;;;18.46;42.78;94095.47;4971143;28;20054;-66
2021/10/21 03:06:33;;;;;;;3.63;2.97;;;;;;;19.18;41.18;94069.47;4971644;28;20162;-66
2021/10/21 03:08:59;;;;;;;3.80;2.65;;;;;;;19.33;40.61;94078.34;4970636;28;20034;-67
2021/10/21 03:11:24;;;;;;;2.20;2.00;;;;;;;19.89;39.64;94071.38;4962312;28;20059;-68
2021/10/21 03:13:49;;;;;;;2.58;2.38;;;;;;;19.77;40.14;94085.31;4974317;28;20043;-67
2021/10/21 03:16:15;;;;;;;4.63;2.42;;;;;;;19.05;41.38;94114.16;4951960;28;20040;-69
2021/10/21 03:18:40;;;;;;;3.38;2.58;;;;;;;19.38;41.27;94153.47;4951372;28;20039;-68
2021/10/21 03:21:05;;;;;;;3.53;3.22;;;;;;;18.88;42.36;94162.19;4951962;28;20051;-67
2021/10/21 03:23:31;;;;;;;3.38;2.50;;;;;;;18.59;43.19;94166.69;4974141;28;20485;-68
2021/10/21 03:25:56;;;;;;;2.83;2.50;;;;;;;18.81;42.36;94167.59;4964052;28;20035;-68
2021/10/21 03:28:22;;;;;;;2.75;2.50;;;;;;;19.27;41.62;94187.75;4961843;28;20042;-68
2021/10/21 03:30:47;;;;;;;2.95;2.70;;;;;;;18.67;42.79;94176.34;4970446;28;20486;-67
2021/10/21 03:33:13;;;;;;;4.63;2.67;;;;;;;17.97;44.33;94185.56;4970711;28;20035;-68
2021/10/21 03:35:39;;;;;;;2.75;2.55;;;;;;;18.90;42.38;94191.50;4972832;28;20049;-68
2021/10/21 03:38:04;;;;;;;2.38;2.13;;;;;;;19.45;41.55;94212.81;4970588;28;20031;-68
2021/10/21 03:40:30;;;;;;;5.80;2.53;;;;;;;19.47;41.21;94189.69;4966574;28;20530;-69
2021/10/21 03:42:56;;;;;;;2.80;2.60;;;;;;;19.19;41.57;94193.13;4958908;28;20031;-68
2021/10/21 03:45:21;;;;;;;2.90;2.70;;;;;;;18.98;42.33;94193.03;4984322;28;20046;-69
2021/10/21 03:47:47;;;;;;;2.97;2.78;;;;;;;18.90;42.20;94170.69;4969904;28;20488;-69
2021/10/21 03:50:13;;;;;;;2.58;2.38;;;;;;;19.48;41.46;94179.69;4986867;28;20022;-69
2021/10/21 03:52:38;;;;;;;2.25;2.05;;;;;;;19.97;40.40;94187.06;4970261;28;20085;-68
2021/10/21 03:55:04;;;;;;;4.38;2.60;;;;;;;20.23;40.21;94188.56;4961983;28;20130;-68
2021/10/21 03:57:30;;;;;;;2.97;2.63;;;;;;;20.49;39.99;94203.59;4976091;28;20039;-69
2021/10/21 03:59:55;;;;;;;2.45;2.25;;;;;;;20.56;39.75;94200.09;4947398;28;20468;-69
2021/10/21 04:02:20;;;;;;;3.10;2.28;;;;;;;20.67;39.37;94213.56;4972144;28;20042;-69
2021/10/21 04:04:46;;;;;;;2.70;2.50;;;;;;;19.27;41.84;94234.34;4969955;28;20511;-68
2021/10/21 04:07:11;;;;;;;3.03;2.00;;;;;;;18.39;43.75;94232.75;4970269;28;20133;-69
2021/10/21 04:09:37;;;;;;;2.47;2.28;;;;;;;17.99;45.18;94247.84;4957910;28;20078;-70
2021/10/21 04:12:03;;;;;;;2.97;2.58;;;;;;;17.26;46.25;94249.44;4941729;28;20032;-69
2021/10/21 04:14:28;;;;;;;3.15;2.45;;;;;;;17.50;46.32;94273.09;4960163;28;20059;-68
2021/10/21 04:16:54;;;;;;;2.95;2.38;;;;;;;17.99;44.76;94269.38;4950870;28;20035;-69
2021/10/21 04:19:19;;;;;;;3.00;2.70;;;;;;;18.92;42.79;94308.50;4950322;28;20039;-68
2021/10/21 04:21:44;;;;;;;5.10;2.50;;;;;;;18.16;44.19;94322.56;4950430;28;20053;-68
2021/10/21 04:24:10;;;;;;;2.90;2.53;;;;;;;17.86;44.93;94311.13;4958506;28;20090;-69
2021/10/21 04:26:35;;;;;;;2.90;2.63;;;;;;;18.31;44.26;94323.47;4960473;28;20545;-69
2021/10/21 04:29:01;;;;;;;2.40;2.20;;;;;;;18.03;44.64;94340.16;4957989;28;20545;-69
2021/10/21 04:31:26;;;;;;;2.65;2.28;;;;;;;18.06;44.92;94333.25;4950766;28;20051;-68
2021/10/21 04:33:51;;;;;;;2.85;2.65;;;;;;;17.67;45.97;94344.38;4950917;28;20548;-69
2021/10/21 04:36:17;;;;;;;6.18;2.95;;;;;;;17.60;45.88;94310.09;4951349;28;20043;-70
2021/10/21 04:38:42;;;;;;;3.40;3.00;;;;;;;17.90;45.97;94293.13;4957206;28;20042;-69
2021/10/21 04:41:08;;;;;;;4.53;2.80;;;;;;;18.59;44.61;94289.81;4969972;28;20090;-68
2021/10/21 04:43:33;;;;;;;4.03;3.20;;;;;;;17.90;46.78;94298.50;4961700;28;20082;-69
2021/10/21 04:45:59;;;;;;;5.50;3.30;;;;;;;18.54;45.09;94290.94;4970082;28;20058;-68
2021/10/21 04:48:24;;;;;;;4.30;3.25;;;;;;;19.14;44.05;94246.59;4969764;28;20034;-69
2021/10/21 04:50:49;;;;;;;3.30;3.08;;;;;;;19.34;43.85;94274.03;4969638;28;20046;-69
2021/10/21 04:53:15;;;;;;;4.32;3.65;;;;;;;19.09;44.66;94311.66;4985762;28;20082;-69
2021/10/21 04:55:41;;;;;;;3.50;3.20;;;;;;;18.82;45.04;94303.84;4979043;28;20051;-69
2021/10/21 04:58:06;;;;;;;4.80;3.75;;;;;;;18.92;44.92;94300.44;4990882;23;20536;-75
2021/10/21 05:00:35;;;;;;;4.13;3.72;;;;;;;19.71;43.87;94247.56;5004205;28;20049;-76
2021/10/21 05:03:12;;;;;;;4.25;3.85;;;;;;;20.07;43.13;94260.31;4989668;28;20049;-76
2021/10/21 05:05:40;;;;;;;4.28;3.88;;;;;;;20.20;43.11;94296.56;4991974;28;20105;-75
2021/10/21 05:08:06;;;;;;;4.13;3.83;;;;;;;20.24;43.02;94273.81;4989642;28;20065;-75
2021/10/21 05:10:32;;;;;;;4.45;4.05;;;;;;;20.39;43.09;94306.22;4989132;28;20050;-76
2021/10/21 05:12:58;;;;;;;4.40;3.80;;;;;;;20.45;42.81;94272.25;4982508;28;20039;-76
2021/10/21 05:15:23;;;;;;;4.38;3.90;;;;;;;20.47;42.87;94278.06;4970406;28;20170;-77
2021/10/21 05:17:50;;;;;;;3.78;3.47;;;;;;;20.16;42.92;94247.97;4985594;28;20030;-76
2021/10/21 05:20:15;;;;;;;5.35;4.85;;;;;;;20.38;42.87;94248.72;4971792;28;20022;-75
2021/10/21 05:22:40;;;;;;;4.53;4.13;;;;;;;20.56;42.55;94232.50;4970019;28;20045;-76
2021/10/21 05:25:06;;;;;;;5.65;4.80;;;;;;;20.53;42.64;94197.41;4984105;28;20038;-76
2021/10/21 05:27:32;;;;;;;5.43;4.50;;;;;;;20.60;42.38;94203.56;4989404;28;20046;-75
2021/10/21 05:29:58;;;;;;;7.30;4.13;;;;;;;20.72;42.54;94230.16;4987909;28;20080;-75
2021/10/21 05:32:23;;;;;;;4.97;4.50;;;;;;;20.73;42.18;94212.78;4991601;28;20424;-78
2021/10/21 05:34:49;;;;;;;5.60;5.07;;;;;;;20.74;41.85;94198.13;4989633;28;20439;-77
2021/10/21 05:37:14;;;;;;;4.80;4.40;;;;;;;20.64;41.76;94228.66;4989928;28;20065;-76
2021/10/21 05:39:39;;;;;;;4.30;3.90;;;;;;;20.24;42.20;94246.81;4989129;28;20515;-78
2021/10/21 05:42:05;;;;;;;4.03;3.72;;;;;;;19.68;43.07;94248.31;4988435;28;20100;-76
2021/10/21 05:44:30;;;;;;;4.30;3.70;;;;;;;19.07;44.38;94255.44;4991682;28;20027;-79
2021/10/21 05:46:56;;;;;;;4.85;3.30;;;;;;;18.80;44.91;94232.63;4988755;28;20039;-77
2021/10/21 05:49:22;;;;;;;5.00;2.78;;;;;;;18.27;46.88;94251.88;4987378;28;20046;-76
2021/10/21 05:51:47;;;;;;;3.42;3.05;;;;;;;18.16;48.70;94276.81;4989452;28;20053;-74
2021/10/21 05:54:13;;;;;;;3.35;2.10;;;;;;;17.52;51.16;94256.63;4987099;28;20088;-76
2021/10/21 05:56:38;;;;;;;3.70;2.30;;;;;;;17.55;52.44;94288.91;4990137;28;20038;-73
2021/10/21 05:59:04;;;;;;;4.10;2.83;;;;;;;18.15;52.65;94267.19;4979782;28;20042;-69
2021/10/21 06:01:30;;;;;;;1.77;1.63;;;;;;;17.08;54.71;94293.00;5003317;28;20114;-73
2021/10/21 06:03:55;;;;;;;4.38;2.30;;;;;;;17.65;54.21;94325.88;4988574;28;20034;-83
2021/10/21 06:06:21;;;;;;;2.53;1.90;;;;;;;17.05;56.38;94319.84;4986945;28;20053;-76
2021/10/21 06:08:46;;;;;;;5.25;1.50;;;;;;;16.95;57.33;94345.41;5002425;28;20061;-78
2021/10/21 06:11:12;;;;;;;1.77;1.67;;;;;;;17.20;57.24;94361.06;4984223;28;20034;-76
2021/10/21 06:13:40;;;;;;;3.72;1.75;;;;;;;16.86;58.30;94388.66;4991490;28;20034;-77
2021/10/21 06:16:07;;;;;;;2.63;1.95;;;;;;;17.04;58.88;94399.63;4992657;28;20047;-77
2021/10/21 06:18:34;;;;;;;3.47;1.55;;;;;;;16.95;58.42;94406.44;4992901;28;20054;-78
2021/10/21 06:21:01;;;;;;;1.67;1.50;;;;;;;16.47;59.86;94436.34;4992960;28;20027;-78
2021/10/21 06:23:27;;;;;;;2.20;1.75;;;;;;;16.39;59.92;94445.41;4994813;28;20031;-77
2021/10/21 06:25:53;;;;;;;1.60;1.35;;;;;;;16.46;59.18;94468.91;4974814;28;20039;-75
2021/10/21 06:28:19;;;;;;;1.58;0.65;;;;;;;16.04;57.16;94422.19;4984907;28;20420;-71
2021/10/21 06:30:47;;;;;;;2.67;0.40;;;;;;;15.87;55.65;94457.50;5007114;28;20066;-78
2021/10/21 06:33:14;;;;;;;2.67;0.93;;;;;;;16.39;53.90;94458.84;5007652;28;20126;-80
2021/10/21 06:35:44;;;;;;;3.67;0.73;;;;;;;16.17;52.85;94459.56;5010923;28;20089;-79
2021/10/21 06:38:15;;;;;;;8.98;0.63;;;;;;;16.26;51.24;94396.50;4988169;28;20051;-74
2021/10/21 06:40:41;;;;;;;0.30;0.30;;;;;;;15.86;52.89;94455.94;4984895;28;20070;-73
2021/10/21 06:43:06;;;;;;;3.40;0.70;;;;;;;16.23;51.65;94450.88;4991141;28;20448;-75
2021/10/21 06:45:33;;;;;;;2.38;0.50;;;;;;;16.00;50.18;94442.78;4975114;28;20123;-72
2021/10/21 06:47:59;;;;;;;2.53;0.50;;;;;;;16.63;47.86;94457.69;4954382;28;20031;-82
2021/10/21 06:50:25;;;;;;;1.23;0.40;;;;;;;15.98;47.27;94450.44;4975035;28;20023;-80
2021/10/21 06:52:50;;;;;;;4.93;0.35;;;;;;;15.59;46.14;94454.97;4973861;28;20102;-73
2021/10/21 06:55:16;;;;;;;3.28;0.60;;;;;;;15.56;44.93;94472.56;4981478;28;20039;-79
2021/10/21 06:57:52;;;;;;;4.28;0.38;;;;;;;16.56;44.03;94479.06;4984312;28;20047;-82
2021/10/21 07:00:19;;;;;;;1.15;0.30;;;;;;;16.16;45.62;94490.22;4977144;28;20030;-74
2021/10/21 07:02:45;;;;;;;4.90;0.88;;;;;;;16.84;44.01;94481.50;4994050;28;20034;-73
2021/10/21 07:05:13;;;;;;;5.40;0.60;;;;;;;16.57;45.11;94494.03;4993128;28;20035;-81
2021/10/21 07:07:40;;;;;;;5.72;1.13;;;;;;;16.11;46.67;94489.38;4992286;28;20034;-75
2021/10/21 07:10:08;;;;;;;3.80;0.60;;;;;;;16.05;47.14;94480.06;5005512;28;20483;-70
2021/10/21 07:12:33;;;;;;;5.55;1.00;;;;;;;16.38;46.58;94478.75;4997815;28;20125;-80
2021/10/21 07:14:59;;;;;;;2.70;0.55;;;;;;;16.16;48.25;94506.31;4992284;28;20105;-74
2021/10/21 07:17:25;;;;;;;2.47;0.57;;;;;;;16.20;48.12;94488.38;4994247;28;20550;-73
2021/10/21 07:19:51;;;;;;;2.10;0.77;;;;;;;16.18;48.98;94510.22;4989667;28;20047;-73
2021/10/21 07:22:16;;;;;;;2.85;0.50;;;;;;;16.58;48.55;94522.41;4990335;28;20038;-75
2021/10/21 07:24:43;;;;;;;1.95;0.60;;;;;;;16.17;49.83;94523.97;5007299;28;20054;-77
2021/10/21 07:27:16;;;;;;;1.88;0.60;;;;;;;15.86;50.64;94525.66;4991947;28;20038;-81
2021/10/21 07:29:41;;;;;;;0.98;0.52;;;;;;;16.70;49.31;94538.38;4980218;28;20029;-75
2021/10/21 07:32:07;;;;;;;0.93;0.75;;;;;;;16.13;50.80;94555.34;4972381;28;20047;-70
2021/10/21 07:34:32;;;;;;;3.35;0.63;;;;;;;16.59;49.33;94551.63;4972552;28;20489;-76
2021/10/21 07:36:58;;;;;;;5.65;1.13;;;;;;;16.63;49.35;94568.56;4971446;28;20039;-77
2021/10/21 07:39:24;;;;;;;1.58;0.80;;;;;;;16.11;50.72;94567.16;4971974;28;20704;-76
2021/10/21 07:41:51;;;;;;;1.85;0.50;;;;;;;16.68;49.35;94572.09;4972416;28;20030;-72
2021/10/21 07:44:18;;;;;;;1.20;0.50;;;;;;;16.16;50.66;94576.84;4992350;28;20030;-74
2021/10/21 07:46:49;;;;;;;4.22;0.85;;;;;;;16.45;49.99;94604.25;4989694;28;20129;-73
2021/10/21 07:49:15;;;;;;;1.13;0.55;;;;;;;16.26;50.58;94578.97;4990139;28;20480;-74
2021/10/21 07:51:42;;;;;;;2.60;0.80;;;;;;;16.60;49.13;94595.34;4990912;28;20035;-75
2021/10/21 07:54:08;;;;;;;3.00;0.73;;;;;;;16.17;50.36;94589.13;4990383;28;20104;-73
2021/10/21 07:56:33;;;;;;;4.60;0.80;;;;;;;16.45;48.39;94623.84;4992755;28;20444;-77
2021/10/21 07:59:01;;;;;;;2.65;0.90;;;;;;;16.51;49.08;94611.66;5006199;28;20500;-77
2021/10/21 08:01:26;;;;;;;6.68;0.93;;;;;;;16.41;48.34;94620.28;4991738;28;20069;-80
2021/10/21 08:03:52;;;;;;;4.63;0.80;;;;;;;16.29;46.97;94618.53;4990332;28;20448;-74
2021/10/21 08:06:17;;;;;;;4.00;0.88;;;;;;;15.52;47.22;94683.44;4989810;28;20045;-80
2021/10/21 08:08:43;;;;;;;7.47;1.00;;;;;;;15.98;45.34;94619.41;4993927;28;20054;-79
2021/10/21 08:11:08;;;;;;;6.35;1.05;;;;;;;16.28;44.25;94643.03;4991116;28;20061;-79
2021/10/21 08:13:34;;;;;;;3.17;0.80;;;;;;;16.11;44.79;94636.16;4979559;28;20065;-79
2021/10/21 08:15:59;;;;;;;7.43;1.08;;;;;;;15.80;44.51;94702.13;4973184;28;20054;-81
2021/10/21 08:18:25;;;;;;;5.30;1.30;;;;;;;16.80;43.14;94621.09;4973126;28;20134;-80
2021/10/21 08:20:50;;;;;;;7.80;1.10;;;;;;;16.29;43.54;94671.44;4972947;28;20068;-82
2021/10/21 08:23:17;;;;;;;11.77;1.23;;;;;;;16.00;43.75;94630.56;4974833;28;20110;-81
2021/10/21 08:25:43;;;;;;;6.40;1.13;;;;;;;16.23;42.89;94664.78;4971298;28;20078;-80
2021/10/21 08:28:16;;;;;;;6.35;1.10;;;;;;;16.29;43.02;94674.13;4983449;28;20061;-80
2021/10/21 08:30:43;;;;;;;8.25;1.05;;;;;;;15.91;43.40;94643.38;4985585;28;20035;-80
2021/10/21 08:33:11;;;;;;;1.63;0.60;;;;;;;15.42;44.66;94657.16;4971901;28;20069;-80
2021/10/21 08:35:37;;;;;;;5.78;1.00;;;;;;;15.53;44.01;94666.25;4974404;28;20062;-79
2021/10/21 08:38:03;;;;;;;3.95;1.52;;;;;;;15.88;43.86;94657.50;4971903;28;20031;-75
2021/10/21 08:40:31;;;;;;;5.47;1.10;;;;;;;15.98;43.46;94662.34;4981000;28;20065;-84
2021/10/21 08:42:56;;;;;;;9.82;1.75;;;;;;;16.27;43.17;94662.94;4991753;28;20125;-78
2021/10/21 08:45:22;;;;;;;5.32;0.88;;;;;;;16.31;43.29;94659.19;4991667;28;20496;-79
2021/10/21 08:47:49;;;;;;;5.25;0.95;;;;;;;16.16;43.50;94705.63;4989974;28;20027;-72
2021/10/21 08:50:16;;;;;;;9.93;1.15;;;;;;;16.26;43.28;94685.53;4992673;28;20108;-78
2021/10/21 08:52:43;;;;;;;4.90;1.10;;;;;;;16.66;42.55;94692.50;4991231;28;20035;-78
2021/10/21 08:55:08;;;;;;;6.10;1.38;;;;;;;16.43;42.71;94670.94;4989897;28;20065;-75
2021/10/21 08:57:35;;;;;;;8.55;1.15;;;;;;;17.05;41.81;94688.72;4989913;28;20077;-72
2021/10/21 09:00:00;;;;;;;5.78;0.80;;;;;;;16.51;42.97;94696.81;4981608;28;20088;-73
2021/10/21 09:08:03;;;;;;;11.05;1.02;;;;;;;16.59;41.63;94706.56;4989179;28;20217;-76
2021/10/21 09:10:30;;;;;;;4.18;0.98;;;;;;;16.42;41.15;94733.81;4988535;28;20096;-78
2021/10/21 09:12:55;;;;;;;4.47;0.95;;;;;;;16.17;41.18;94719.84;4987894;28;20101;-73
2021/10/21 09:15:26;;;;;;;4.68;1.30;;;;;;;16.86;40.49;94723.66;4988292;28;20034;-73
2021/10/21 09:17:53;;;;;;;12.32;0.95;;;;;;;16.26;40.71;94701.63;4988639;28;20484;-70
2021/10/21 09:20:20;;;;;;;5.63;0.98;;;;;;;16.23;40.55;94691.63;4990109;28;20037;-69
2021/10/21 09:23:06;;;;;;;1.45;0.60;;;;;;;15.99;41.54;94722.13;4988669;28;20078;-80
2021/10/21 09:25:32;;;;;;;6.43;1.10;;;;;;;16.24;41.53;94704.69;4990816;28;20038;-80
2021/10/21 09:28:02;;;;;;;3.78;0.90;;;;;;;15.58;41.39;94727.63;4991216;28;20697;-79
2021/10/21 09:30:30;;;;;;;8.35;0.90;;;;;;;15.64;40.68;94722.06;4990803;28;20038;-79
2021/10/21 09:33:07;;;;;;;7.47;1.00;;;;;;;15.85;40.32;94733.28;4990157;28;20022;-78
2021/10/21 09:35:35;;;;;;;10.20;1.35;;;;;;;15.68;40.56;94761.22;4992988;28;20101;-76
2021/10/21 09:38:01;;;;;;;18.23;1.27;;;;;;;15.66;40.73;94735.88;4991335;28;20069;-79
2021/10/21 09:40:32;;;;;;;4.15;0.68;;;;;;;16.15;39.84;94743.56;4988899;28;20042;-81
2021/10/21 09:43:00;;;;;;;5.43;1.33;;;;;;;16.31;39.63;94752.38;4989352;28;20046;-80
2021/10/21 09:45:33;;;;;;;4.00;0.82;;;;;;;16.32;39.05;94733.22;4989043;28;20038;-80
2021/10/21 09:48:00;;;;;;;10.98;1.27;;;;;;;16.34;39.29;94746.31;4990764;28;20507;-78
2021/10/21 09:50:38;;;;;;;7.95;1.10;;;;;;;16.77;38.87;94739.19;4992135;28;20179;-80
2021/10/21 09:53:19;;;;;;;5.25;1.30;;;;;;;16.69;38.61;94750.91;4990648;28;20035;-79
2021/10/21 09:55:47;;;;;;;3.15;1.30;;;;;;;16.37;38.80;94753.66;4990648;28;20049;-80
2021/10/21 09:58:14;;;;;;;6.85;0.93;;;;;;;16.22;39.45;94741.03;4990574;28;20042;-80
2021/10/21 10:00:41;;;;;;;4.25;1.00;;;;;;;16.45;39.16;94792.19;4990708;28;20727;-80
2021/10/21 10:03:33;;;;;;;3.28;1.15;;;;;;;16.08;39.34;94769.09;4989520;28;20038;-81
2021/10/21 10:05:59;;;;;;;1.30;0.60;;;;;;;16.17;38.86;94762.75;4989628;28;20066;-80
2021/10/21 10:08:25;;;;;;;7.47;0.98;;;;;;;16.66;38.33;94786.50;4992672;28;20357;-80
2021/10/21 10:10:53;;;;;;;3.53;0.80;;;;;;;16.73;37.68;94771.34;4989032;28;20046;-80
2021/10/21 10:13:20;;;;;;;6.70;0.75;;;;;;;15.88;38.71;94750.59;4989861;28;20133;-79
2021/10/21 10:15:49;;;;;;;4.97;1.50;;;;;;;16.13;38.05;94788.75;4985261;28;20035;-79
2021/10/21 10:18:17;;;;;;;16.50;0.70;;;;;;;16.75;36.73;94805.91;4986361;28;20043;-81
2021/10/21 10:20:55;;;;;;;2.90;0.60;;;;;;;16.16;37.73;94812.19;4987387;28;20058;-78
2021/10/21 10:23:22;;;;;;;2.92;0.60;;;;;;;15.92;38.31;94818.50;4971038;28;20743;-80
2021/10/21 10:25:50;;;;;;;8.25;0.82;;;;;;;16.29;37.74;94795.66;4979518;28;20093;-80
2021/10/21 10:28:16;;;;;;;6.70;1.25;;;;;;;15.85;38.20;94832.53;4990076;28;20034;-80
2021/10/21 10:30:57;;;;;;;3.38;0.60;;;;;;;15.91;38.62;94815.03;4990256;28;20035;-81
2021/10/21 10:33:42;;;;;;;5.07;0.98;;;;;;;15.92;38.46;94797.03;4990571;28;20030;-77
2021/10/21 10:36:28;;;;;;;3.03;1.40;;;;;;;16.27;38.18;94856.16;4989383;28;20038;-81
2021/10/21 10:39:02;;;;;;;3.72;0.85;;;;;;;16.22;38.06;94818.84;4989206;28;20054;-80
2021/10/21 10:41:48;;;;;;;7.10;0.90;;;;;;;16.51;37.83;94845.25;4992255;28;20022;-81
2021/10/21 10:44:52;;;;;;;14.35;1.25;;;;;;;16.24;38.29;94841.56;5006323;28;20042;-81
2021/10/21 10:47:37;;;;;;;6.10;1.67;;;;;;;16.54;37.42;94841.09;4950002;29;20051;-80
2021/10/21 10:50:07;;;;;;;3.22;0.80;;;;;;;16.15;37.87;94861.63;4949306;28;20067;-79
2021/10/21 10:52:48;;;;;;;5.03;0.73;;;;;;;16.96;36.91;94843.19;4976652;28;20052;-77
2021/10/21 10:55:19;;;;;;;3.33;0.80;;;;;;;16.96;36.87;94859.31;4975642;28;20043;-76
2021/10/21 10:57:44;;;;;;;10.18;1.52;;;;;;;17.27;36.31;94856.53;4988229;23;20054;-66
2021/10/21 11:00:31;;;;;;;5.55;1.13;;;;;;;17.11;36.54;94842.38;4990058;28;20570;-66
2021/10/21 11:02:57;;;;;;;4.65;1.35;;;;;;;17.44;35.65;94862.59;4981003;28;20035;-66
2021/10/21 11:05:23;;;;;;;4.22;0.90;;;;;;;16.93;36.43;94863.47;4973372;28;20102;-66
2021/10/21 11:07:50;;;;;;;1.00;0.40;;;;;;;16.66;36.69;94867.84;4988041;28;20037;-67
2021/10/21 11:10:18;;;;;;;3.40;0.68;;;;;;;16.38;35.85;94879.47;5002084;28;20116;-66
2021/10/21 11:12:51;;;;;;;0.95;0.60;;;;;;;16.18;35.84;94907.34;5009960;28;20038;-65
2021/10/21 11:15:29;;;;;;;1.58;0.30;;;;;;;16.47;35.17;94895.38;5009914;28;20117;-66
2021/10/21 11:17:56;;;;;;;1.15;0.52;;;;;;;16.41;35.28;94874.53;5010169;28;20483;-66
2021/10/21 11:20:30;;;;;;;10.73;0.73;;;;;;;16.82;35.30;94900.06;5011515;28;20371;-66
2021/10/21 11:22:59;;;;;;;3.03;0.50;;;;;;;16.67;35.50;94895.47;5008418;28;20053;-66
2021/10/21 11:25:30;;;;;;;3.60;0.73;;;;;;;16.96;35.20;94884.28;5009560;28;20045;-66
2021/10/21 11:27:56;;;;;;;2.42;0.50;;;;;;;16.94;34.97;94893.81;5009650;28;20395;-67
2021/10/21 11:30:26;;;;;;;1.23;0.50;;;;;;;16.85;36.00;94881.34;5009384;28;20030;-66
2021/10/21 11:32:54;;;;;;;3.70;1.27;;;;;;;16.90;35.89;94883.00;5009524;28;20080;-66
2021/10/21 11:35:23;;;;;;;3.10;0.80;;;;;;;17.34;35.16;94890.84;5011775;28;20642;-66
2021/10/21 11:37:50;;;;;;;16.17;1.58;;;;;;;18.00;34.18;94883.69;5008614;28;20046;-67
2021/10/21 11:40:39;;;;;;;2.00;0.70;;;;;;;17.86;34.74;94897.66;5009303;28;20199;-67